createdAt,value
2022-11-23T00:00:55.580Z,7.6
2022-11-23T00:01:55.642Z,7.6
2022-11-23T00:02:55.704Z,7.6
2022-11-23T00:03:55.764Z,7.6
2022-11-23T00:04:55.993Z,7.6
2022-11-23T00:05:55.954Z,7.6
2022-11-23T00:06:55.969Z,7.6
2022-11-23T00:07:56.023Z,7.7
2022-11-23T00:08:56.031Z,7.7
2022-11-23T00:09:56.094Z,7.7
2022-11-23T00:10:56.152Z,7.7
2022-11-23T00:11:56.186Z,7.7
2022-11-23T00:12:56.258Z,7.7
2022-11-23T00:13:56.314Z,7.7
2022-11-23T00:14:56.382Z,7.7
2022-11-23T00:15:56.482Z,7.7
2022-11-23T00:16:56.496Z,7.7
2022-11-23T00:17:56.602Z,7.7
2022-11-23T00:18:56.615Z,7.7
2022-11-23T00:19:56.623Z,7.7
2022-11-23T00:20:56.742Z,7.7
2022-11-23T00:21:56.799Z,7.7
2022-11-23T00:22:56.823Z,7.7
2022-11-23T00:23:56.876Z,7.7
2022-11-23T00:24:56.982Z,7.8
2022-11-23T00:25:57.061Z,7.7
2022-11-23T00:26:57.124Z,7.7
2022-11-23T00:27:57.205Z,7.7
2022-11-23T00:28:57.257Z,7.7
2022-11-23T00:29:57.385Z,7.7
2022-11-23T00:30:57.409Z,7.7
2022-11-23T00:31:57.473Z,7.7
2022-11-23T00:32:57.547Z,7.7
2022-11-23T00:33:57.643Z,7.7
2022-11-23T00:34:57.722Z,7.7
2022-11-23T00:35:57.841Z,7.7
2022-11-23T00:36:57.973Z,7.7
2022-11-23T00:37:57.991Z,7.8
2022-11-23T00:38:58.076Z,7.8
2022-11-23T00:39:58.163Z,7.8
2022-11-23T00:40:58.220Z,7.8
2022-11-23T00:41:58.314Z,7.8
2022-11-23T00:42:58.388Z,7.7
2022-11-23T00:43:58.465Z,7.7
2022-11-23T00:44:58.521Z,7.7
2022-11-23T00:45:58.621Z,7.8
2022-11-23T00:46:58.676Z,7.8
2022-11-23T00:47:58.752Z,7.8
2022-11-23T00:48:58.841Z,7.8
2022-11-23T00:49:58.920Z,7.8
2022-11-23T00:50:59.052Z,7.8
2022-11-23T00:51:59.086Z,7.8
2022-11-23T00:52:59.218Z,7.8
2022-11-23T00:53:59.261Z,7.8
2022-11-23T00:54:59.339Z,7.8
2022-11-23T00:55:59.427Z,7.8
2022-11-23T00:56:59.480Z,7.8
2022-11-23T00:57:59.569Z,7.8
2022-11-23T00:58:59.693Z,7.8
2022-11-23T00:59:59.761Z,7.8
2022-11-23T01:00:59.845Z,7.8
2022-11-23T01:01:59.910Z,7.8
2022-11-23T01:02:59.988Z,7.8
2022-11-23T01:04:00.099Z,7.8
2022-11-23T01:05:00.160Z,7.7
2022-11-23T01:06:00.228Z,7.7
2022-11-23T01:07:00.302Z,7.7
2022-11-23T01:08:05.732Z,7.8
2022-11-23T01:09:00.493Z,7.8
2022-11-23T01:10:00.577Z,7.8
2022-11-23T01:11:00.694Z,7.8
2022-11-23T01:12:00.788Z,7.8
2022-11-23T01:13:00.873Z,7.8
2022-11-23T01:14:00.887Z,7.8
2022-11-23T01:15:00.995Z,7.8
2022-11-23T01:16:01.068Z,7.7
2022-11-23T01:17:01.156Z,7.7
2022-11-23T01:18:01.217Z,7.7
2022-11-23T01:19:01.318Z,7.7
2022-11-23T01:20:01.385Z,7.7
2022-11-23T01:21:01.500Z,7.8
2022-11-23T01:22:01.572Z,7.8
2022-11-23T01:23:01.616Z,7.8
2022-11-23T01:24:01.717Z,7.7
2022-11-23T01:25:01.815Z,7.7
2022-11-23T01:26:01.867Z,7.7
2022-11-23T01:27:01.929Z,7.7
2022-11-23T01:28:01.985Z,7.7
2022-11-23T01:29:02.045Z,7.7
2022-11-23T01:30:02.101Z,7.7
2022-11-23T01:31:02.174Z,7.7
2022-11-23T01:32:02.263Z,7.7
2022-11-23T01:33:02.290Z,7.7
2022-11-23T01:34:02.373Z,7.7
2022-11-23T01:35:02.459Z,7.8
2022-11-23T01:36:02.526Z,7.8
2022-11-23T01:37:02.587Z,7.7
2022-11-23T01:38:02.684Z,7.7
2022-11-23T01:39:02.754Z,7.7
2022-11-23T01:40:02.869Z,7.7
2022-11-23T01:41:02.906Z,7.7
2022-11-23T01:42:02.965Z,7.7
2022-11-23T01:43:03.041Z,7.7
2022-11-23T01:44:03.110Z,7.7
2022-11-23T01:45:11.741Z,7.7
2022-11-23T01:46:03.302Z,7.7
2022-11-23T01:47:03.355Z,7.7
2022-11-23T01:48:03.456Z,7.7
2022-11-23T01:49:03.513Z,7.7
2022-11-23T01:50:03.582Z,7.7
2022-11-23T01:51:03.715Z,7.7
2022-11-23T01:52:03.764Z,7.6
2022-11-23T01:53:03.861Z,7.7
2022-11-23T01:54:03.906Z,7.7
2022-11-23T01:55:08.396Z,7.7
2022-11-23T01:56:04.113Z,7.7
2022-11-23T01:57:04.148Z,7.7
2022-11-23T01:58:04.241Z,7.7
2022-11-23T01:59:04.316Z,7.7
2022-11-23T02:00:04.381Z,7.7
2022-11-23T02:01:04.503Z,7.7
2022-11-23T02:02:04.535Z,7.6
2022-11-23T02:03:04.625Z,7.7
2022-11-23T02:04:04.696Z,7.7
2022-11-23T02:05:04.808Z,7.7
2022-11-23T02:06:04.915Z,7.7
2022-11-23T02:07:05.035Z,7.7
2022-11-23T02:08:05.055Z,7.7
2022-11-23T02:09:05.142Z,7.7
2022-11-23T02:10:05.218Z,7.7
2022-11-23T02:11:05.276Z,7.7
2022-11-23T02:12:05.354Z,7.7
2022-11-23T02:13:05.435Z,7.7
2022-11-23T02:14:05.487Z,7.7
2022-11-23T02:15:05.551Z,7.7
2022-11-23T02:16:05.654Z,7.8
2022-11-23T02:17:05.703Z,7.7
2022-11-23T02:18:05.853Z,7.7
2022-11-23T02:19:05.888Z,7.7
2022-11-23T02:20:05.954Z,7.7
2022-11-23T02:21:06.033Z,7.7
2022-11-23T02:22:06.087Z,7.7
2022-11-23T02:23:06.160Z,7.7
2022-11-23T02:24:06.239Z,7.7
2022-11-23T02:25:06.437Z,7.7
2022-11-23T02:26:06.399Z,7.7
2022-11-23T02:27:06.455Z,7.7
2022-11-23T02:28:06.687Z,7.7
2022-11-23T02:29:06.587Z,7.7
2022-11-23T02:30:06.656Z,7.7
2022-11-23T02:31:06.756Z,7.7
2022-11-23T02:32:06.786Z,7.7
2022-11-23T02:33:06.905Z,7.7
2022-11-23T02:34:06.971Z,7.7
2022-11-23T02:35:07.025Z,7.7
2022-11-23T02:36:07.133Z,7.7
2022-11-23T02:37:07.162Z,7.7
2022-11-23T02:38:07.201Z,7.7
2022-11-23T02:39:07.332Z,7.7
2022-11-23T02:40:07.340Z,7.7
2022-11-23T02:41:07.397Z,7.7
2022-11-23T02:42:07.494Z,7.7
2022-11-23T02:43:07.536Z,7.7
2022-11-23T02:44:07.588Z,7.7
2022-11-23T02:45:07.698Z,7.7
2022-11-23T02:46:07.758Z,7.7
2022-11-23T02:47:07.792Z,7.7
2022-11-23T02:48:07.853Z,7.7
2022-11-23T02:49:07.937Z,7.8
2022-11-23T02:50:08.015Z,7.7
2022-11-23T02:51:08.103Z,7.7
2022-11-23T02:52:08.120Z,7.7
2022-11-23T02:53:08.403Z,7.8
2022-11-23T02:54:08.446Z,7.7
2022-11-23T02:55:08.338Z,7.7
2022-11-23T02:56:08.447Z,7.8
2022-11-23T02:57:08.459Z,7.8
2022-11-23T02:58:08.552Z,7.7
2022-11-23T02:59:08.616Z,7.7
2022-11-23T03:00:08.717Z,7.7
2022-11-23T03:01:08.818Z,7.8
2022-11-23T03:02:08.900Z,7.7
2022-11-23T03:03:08.944Z,7.8
2022-11-23T03:04:08.992Z,7.8
2022-11-23T03:05:09.074Z,7.8
2022-11-23T03:06:09.166Z,7.8
2022-11-23T03:07:09.261Z,7.8
2022-11-23T03:08:09.280Z,7.7
2022-11-23T03:09:09.487Z,7.7
2022-11-23T03:10:09.456Z,7.7
2022-11-23T03:11:09.501Z,7.7
2022-11-23T03:12:10.087Z,7.7
2022-11-23T03:13:09.678Z,7.7
2022-11-23T03:14:09.724Z,7.8
2022-11-23T03:15:09.805Z,7.8
2022-11-23T03:16:09.890Z,7.8
2022-11-23T03:17:09.947Z,7.8
2022-11-23T03:18:09.984Z,7.8
2022-11-23T03:19:10.077Z,7.8
2022-11-23T03:20:10.124Z,7.8
2022-11-23T03:21:10.232Z,7.8
2022-11-23T03:22:10.261Z,7.8
2022-11-23T03:23:10.356Z,7.8
2022-11-23T03:24:10.426Z,7.8
2022-11-23T03:25:10.503Z,7.8
2022-11-23T03:26:13.003Z,7.8
2022-11-23T03:27:10.604Z,7.8
2022-11-23T03:28:10.721Z,7.8
2022-11-23T03:29:10.762Z,7.8
2022-11-23T03:30:10.859Z,7.8
2022-11-23T03:31:10.924Z,7.8
2022-11-23T03:32:10.981Z,7.8
2022-11-23T03:33:11.045Z,7.8
2022-11-23T03:34:11.120Z,7.8
2022-11-23T03:35:11.179Z,7.8
2022-11-23T03:36:11.553Z,7.8
2022-11-23T03:37:11.282Z,7.8
2022-11-23T03:38:11.408Z,7.8
2022-11-23T03:40:08.398Z,7.8
2022-11-23T03:40:15.064Z,7.7
2022-11-23T03:41:11.465Z,7.7
2022-11-23T03:42:11.548Z,7.7
2022-11-23T03:43:11.661Z,7.6
2022-11-23T03:44:11.657Z,7.6
2022-11-23T03:45:11.704Z,7.7
2022-11-23T03:46:23.791Z,7.7
2022-11-23T03:47:11.880Z,7.8
2022-11-23T03:48:19.766Z,7.8
2022-11-23T03:49:27.678Z,7.7
2022-11-23T03:50:12.004Z,7.7
2022-11-23T03:51:12.069Z,7.7
2022-11-23T03:52:12.102Z,7.7
2022-11-23T03:53:12.138Z,7.7
2022-11-23T03:54:12.198Z,7.7
2022-11-23T03:55:12.298Z,7.7
2022-11-23T03:56:12.349Z,7.7
2022-11-23T03:57:12.406Z,7.7
2022-11-23T03:58:12.458Z,7.7
2022-11-23T03:59:12.548Z,7.7
2022-11-23T04:00:12.610Z,7.7
2022-11-23T04:01:12.728Z,7.7
2022-11-23T04:02:12.773Z,7.7
2022-11-23T04:03:12.825Z,7.7
2022-11-23T04:04:13.054Z,7.7
2022-11-23T04:05:12.956Z,7.7
2022-11-23T04:06:13.026Z,7.7
2022-11-23T04:07:13.155Z,7.7
2022-11-23T04:08:13.185Z,7.7
2022-11-23T04:09:13.263Z,7.7
2022-11-23T04:10:13.340Z,7.7
2022-11-23T04:11:13.438Z,7.7
2022-11-23T04:12:13.521Z,7.7
2022-11-23T04:13:13.561Z,7.8
2022-11-23T04:14:13.600Z,7.8
2022-11-23T04:15:13.694Z,7.7
2022-11-23T04:16:13.765Z,7.7
2022-11-23T04:17:13.878Z,7.7
2022-11-23T04:18:13.928Z,7.7
2022-11-23T04:19:14.017Z,7.7
2022-11-23T04:20:14.089Z,7.7
2022-11-23T04:21:15.139Z,7.7
2022-11-23T04:22:14.288Z,7.7
2022-11-23T04:23:14.287Z,7.7
2022-11-23T04:29:14.685Z,7.7
2022-11-23T04:31:29.845Z,7.7
2022-11-23T04:32:14.858Z,7.7
2022-11-23T04:33:14.889Z,7.7
2022-11-23T04:34:15.051Z,7.7
2022-11-23T04:35:15.069Z,7.7
2022-11-23T04:36:15.170Z,7.6
2022-11-23T04:37:15.183Z,7.6
2022-11-23T04:38:15.256Z,7.6
2022-11-23T04:39:15.337Z,7.6
2022-11-23T04:40:15.435Z,7.7
2022-11-23T04:41:15.480Z,7.6
2022-11-23T04:42:15.593Z,7.6
2022-11-23T04:43:15.641Z,7.6
2022-11-23T04:44:15.751Z,7.6
2022-11-23T04:45:15.815Z,7.7
2022-11-23T04:46:15.861Z,7.6
2022-11-23T04:47:15.901Z,7.7
2022-11-23T04:48:15.982Z,7.7
2022-11-23T04:49:16.110Z,7.7
2022-11-23T04:50:16.149Z,7.6
2022-11-23T04:51:16.206Z,7.6
2022-11-23T04:52:16.274Z,7.6
2022-11-23T04:53:16.388Z,7.6
2022-11-23T04:54:16.445Z,7.7
2022-11-23T04:55:16.483Z,7.7
2022-11-23T04:56:16.554Z,7.7
2022-11-23T04:57:16.665Z,7.7
2022-11-23T04:58:16.708Z,7.6
2022-11-23T04:59:16.805Z,7.7
2022-11-23T05:00:16.864Z,7.6
2022-11-23T05:01:17.016Z,7.6
2022-11-23T05:02:16.963Z,7.7
2022-11-23T05:03:16.996Z,7.6
2022-11-23T05:04:17.979Z,7.6
2022-11-23T05:05:17.099Z,7.6
2022-11-23T05:06:17.161Z,7.6
2022-11-23T05:07:17.254Z,7.6
2022-11-23T05:08:17.362Z,7.6
2022-11-23T05:09:17.384Z,7.6
2022-11-23T05:10:17.428Z,7.6
2022-11-23T05:11:17.634Z,7.7
2022-11-23T05:12:17.574Z,7.6
2022-11-23T05:13:17.615Z,7.6
2022-11-23T05:14:17.732Z,7.6
2022-11-23T05:15:17.786Z,7.7
2022-11-23T05:16:17.807Z,7.7
2022-11-23T05:17:17.931Z,7.7
2022-11-23T05:18:17.920Z,7.6
2022-11-23T05:19:18.233Z,7.6
2022-11-23T05:20:18.090Z,7.6
2022-11-23T05:21:18.540Z,7.6
2022-11-23T05:22:18.221Z,7.6
2022-11-23T05:23:18.447Z,7.6
2022-11-23T05:24:18.440Z,7.6
2022-11-23T05:25:18.832Z,7.6
2022-11-23T05:26:18.530Z,7.6
2022-11-23T05:27:18.922Z,7.6
2022-11-23T05:28:39.936Z,7.6
2022-11-23T05:29:31.386Z,7.5
2022-11-23T05:30:31.124Z,7.5
2022-11-23T05:31:31.221Z,7.5
2022-11-23T05:32:31.399Z,7.6
2022-11-23T05:33:31.350Z,7.6
2022-11-23T05:34:31.562Z,7.6
2022-11-23T05:35:31.552Z,7.6
2022-11-23T05:36:31.609Z,7.6
2022-11-23T05:37:31.619Z,7.5
2022-11-23T05:38:31.922Z,7.6
2022-11-23T05:39:32.227Z,7.5
2022-11-23T05:40:31.922Z,7.5
2022-11-23T05:41:31.985Z,7.6
2022-11-23T05:42:32.078Z,7.6
2022-11-23T05:43:32.131Z,7.6
2022-11-23T05:44:32.286Z,7.6
2022-11-23T05:45:32.281Z,7.6
2022-11-23T05:46:32.382Z,7.6
2022-11-23T05:47:32.457Z,7.5
2022-11-23T05:48:32.567Z,7.5
2022-11-23T05:49:32.788Z,7.5
2022-11-23T05:50:32.643Z,7.5
2022-11-23T05:51:32.702Z,7.5
2022-11-23T05:52:32.854Z,7.5
2022-11-23T05:53:32.880Z,7.5
2022-11-23T05:54:33.138Z,7.5
2022-11-23T05:55:33.097Z,7.4
2022-11-23T05:56:37.221Z,7.4
2022-11-23T05:57:33.162Z,7.5
2022-11-23T05:58:33.254Z,7.4
2022-11-23T05:59:33.692Z,7.4
2022-11-23T06:00:54.079Z,7.4
2022-11-23T06:01:35.916Z,7.4
2022-11-23T06:02:36.815Z,7.4
2022-11-23T06:03:33.659Z,7.4
2022-11-23T06:04:33.710Z,7.4
2022-11-23T06:05:33.797Z,7.4
2022-11-23T06:06:33.833Z,7.4
2022-11-23T06:07:33.973Z,7.4
2022-11-23T06:08:33.982Z,7.4
2022-11-23T06:09:34.376Z,7.4
2022-11-23T06:10:34.120Z,7.4
2022-11-23T06:11:34.216Z,7.4
2022-11-23T06:12:34.301Z,7.3
2022-11-23T06:13:34.299Z,7.3
2022-11-23T06:14:34.384Z,7.4
2022-11-23T06:15:34.375Z,7.4
2022-11-23T06:16:34.395Z,7.4
2022-11-23T06:17:34.443Z,7.3
2022-11-23T06:18:34.474Z,7.3
2022-11-23T06:19:35.112Z,7.3
2022-11-23T06:20:34.645Z,7.3
2022-11-23T06:21:34.618Z,7.3
2022-11-23T06:22:34.646Z,7.3
2022-11-23T06:23:34.734Z,7.3
2022-11-23T06:24:34.793Z,7.3
2022-11-23T06:25:34.851Z,7.3
2022-11-23T06:26:34.894Z,7.4
2022-11-23T06:27:34.998Z,7.4
2022-11-23T06:28:35.014Z,7.4
2022-11-23T06:29:35.239Z,7.3
2022-11-23T06:30:35.162Z,7.3
2022-11-23T06:31:35.223Z,7.3
2022-11-23T06:32:35.288Z,7.3
2022-11-23T06:33:35.404Z,7.3
2022-11-23T06:34:35.449Z,7.3
2022-11-23T06:35:35.515Z,7.3
2022-11-23T06:36:35.590Z,7.3
2022-11-23T06:37:35.694Z,7.4
2022-11-23T06:38:35.693Z,7.4
2022-11-23T06:39:35.945Z,7.3
2022-11-23T06:40:35.869Z,7.3
2022-11-23T06:41:35.954Z,7.4
2022-11-23T06:42:39.278Z,7.3
2022-11-23T06:43:36.116Z,7.3
2022-11-23T06:44:36.618Z,7.4
2022-11-23T06:45:36.253Z,7.4
2022-11-23T06:46:36.325Z,7.4
2022-11-23T06:47:36.447Z,7.4
2022-11-23T06:48:36.504Z,7.4
2022-11-23T06:49:38.994Z,7.4
2022-11-23T06:50:36.639Z,7.4
2022-11-23T06:51:36.726Z,7.3
2022-11-23T06:52:37.290Z,7.3
2022-11-23T06:53:36.942Z,7.3
2022-11-23T06:54:36.929Z,7.3
2022-11-23T06:56:37.263Z,7.3
2022-11-23T06:57:42.556Z,7.3
2022-11-23T06:58:45.148Z,7.4
2022-11-23T06:59:41.922Z,7.3
2022-11-23T07:00:37.723Z,7.3
2022-11-23T07:01:37.864Z,7.3
2022-11-23T07:02:37.892Z,7.4
2022-11-23T07:03:38.049Z,7.3
2022-11-23T07:04:38.052Z,7.3
2022-11-23T07:05:38.103Z,7.3
2022-11-23T07:06:38.193Z,7.3
2022-11-23T07:07:38.345Z,7.3
2022-11-23T07:08:38.341Z,7.3
2022-11-23T07:09:38.414Z,7.3
2022-11-23T07:10:38.525Z,7.3
2022-11-23T07:11:38.650Z,7.3
2022-11-23T07:12:38.713Z,7.3
2022-11-23T07:13:38.748Z,7.3
2022-11-23T07:14:41.162Z,7.3
2022-11-23T07:15:38.872Z,7.3
2022-11-23T07:16:39.036Z,7.3
2022-11-23T07:17:39.065Z,7.3
2022-11-23T07:18:39.261Z,7.3
2022-11-23T07:19:39.181Z,7.3
2022-11-23T07:20:39.485Z,7.3
2022-11-23T07:21:39.724Z,7.3
2022-11-23T07:22:39.555Z,7.3
2022-11-23T07:23:39.403Z,7.3
2022-11-23T07:24:42.718Z,7.3
2022-11-23T07:25:45.817Z,7.3
2022-11-23T07:26:51.346Z,7.3
2022-11-23T07:27:39.723Z,7.3
2022-11-23T07:28:39.652Z,7.3
2022-11-23T07:29:39.723Z,7.3
2022-11-23T07:30:39.816Z,7.3
2022-11-23T07:31:39.801Z,7.3
2022-11-23T07:32:39.882Z,7.3
2022-11-23T07:33:41.059Z,7.3
2022-11-23T07:34:45.012Z,7.3
2022-11-23T07:35:40.077Z,7.3
2022-11-23T07:36:40.144Z,7.3
2022-11-23T07:37:40.183Z,7.3
2022-11-23T07:38:46.840Z,7.3
2022-11-23T07:39:56.670Z,7.3
2022-11-23T07:40:40.465Z,7.3
2022-11-23T07:41:40.424Z,7.3
2022-11-23T07:42:44.754Z,7.3
2022-11-23T07:43:40.584Z,7.4
2022-11-23T07:44:40.621Z,7.4
2022-11-23T07:45:40.712Z,7.4
2022-11-23T07:46:40.796Z,7.3
2022-11-23T07:47:40.861Z,7.3
2022-11-23T07:48:40.912Z,7.3
2022-11-23T07:49:40.997Z,7.3
2022-11-23T07:50:41.883Z,7.3
2022-11-23T07:51:41.122Z,7.3
2022-11-23T07:52:43.108Z,7.3
2022-11-23T07:53:42.419Z,7.4
2022-11-23T07:54:50.747Z,7.3
2022-11-23T07:55:43.606Z,7.3
2022-11-23T08:12:09.639Z,7.9
2022-11-23T08:13:13.836Z,8
2022-11-23T08:14:11.641Z,8
2022-11-23T08:15:11.352Z,8.1
2022-11-23T08:16:11.931Z,8.1
2022-11-23T08:17:10.346Z,8.1
2022-11-23T08:18:09.417Z,8.1
2022-11-23T08:19:09.452Z,8.1
2022-11-23T08:20:09.489Z,8.1
2022-11-23T08:21:09.695Z,8.1
2022-11-23T08:22:12.339Z,8.1
2022-11-23T08:23:10.255Z,8.1
2022-11-23T08:24:09.838Z,8.1
2022-11-23T08:25:09.867Z,8.1
2022-11-23T08:26:13.754Z,8.1
2022-11-23T08:27:10.046Z,8
2022-11-23T08:28:10.388Z,7.9
2022-11-23T08:29:10.326Z,7.9
2022-11-23T08:30:10.310Z,7.8
2022-11-23T08:31:10.408Z,7.8
2022-11-23T08:32:10.402Z,7.8
2022-11-23T08:33:10.454Z,7.8
2022-11-23T08:34:10.497Z,7.8
2022-11-23T08:35:10.808Z,7.8
2022-11-23T08:36:11.185Z,7.9
2022-11-23T08:37:18.201Z,7.9
2022-11-23T08:38:10.969Z,7.9
2022-11-23T08:39:10.957Z,7.9
2022-11-23T08:40:10.928Z,8
2022-11-23T08:41:21.829Z,8
2022-11-23T08:42:34.650Z,8
2022-11-23T08:45:11.973Z,8
2022-11-23T08:45:11.984Z,8
2022-11-23T08:51:14.278Z,8
2022-11-23T08:54:46.746Z,8.1
2022-11-23T08:55:46.836Z,8
2022-11-23T08:56:46.928Z,8
2022-11-23T08:57:46.980Z,8
2022-11-23T08:58:47.022Z,7.9
2022-11-23T08:59:47.119Z,8
2022-11-23T09:00:47.232Z,7.9
2022-11-23T09:01:47.298Z,7.9
2022-11-23T09:02:47.371Z,7.9
2022-11-23T09:03:47.397Z,7.9
2022-11-23T09:04:47.440Z,7.8
2022-11-23T09:05:47.520Z,7.8
2022-11-23T09:06:47.624Z,8.1
2022-11-23T09:07:47.856Z,8.3
2022-11-23T09:08:47.770Z,8.2
2022-11-23T09:09:47.843Z,8.1
2022-11-23T09:10:47.929Z,8
2022-11-23T09:11:48.036Z,7.9
2022-11-23T09:12:48.105Z,7.9
2022-11-23T09:13:48.146Z,7.9
2022-11-23T09:14:48.191Z,7.9
2022-11-23T09:15:48.429Z,7.8
2022-11-23T09:16:48.318Z,7.9
2022-11-23T09:17:48.298Z,8
2022-11-23T09:18:48.617Z,7.9
2022-11-23T09:19:48.386Z,7.9
2022-11-23T09:20:48.483Z,7.9
2022-11-23T09:21:48.483Z,7.9
2022-11-23T09:22:48.510Z,8
2022-11-23T09:24:01.645Z,7.9
2022-11-23T09:26:31.664Z,8
2022-11-23T09:29:01.713Z,8
2022-11-23T09:31:31.632Z,8
2022-11-23T09:34:01.722Z,8.8
2022-11-23T09:35:12.899Z,9.1
2022-11-23T09:36:12.947Z,9.1
2022-11-23T09:37:13.014Z,9.1
2022-11-23T09:38:13.107Z,8.9
2022-11-23T09:39:13.831Z,8.7
2022-11-23T09:40:13.266Z,8.5
2022-11-23T09:41:13.363Z,8.4
2022-11-23T09:42:13.385Z,8.4
2022-11-23T09:43:13.463Z,8.5
2022-11-23T09:44:13.509Z,8.4
2022-11-23T09:45:14.055Z,8.4
2022-11-23T09:46:13.615Z,8.4
2022-11-23T09:47:13.794Z,8.3
2022-11-23T09:48:13.874Z,8.2
2022-11-23T09:49:13.838Z,8.2
2022-11-23T09:50:14.123Z,8.3
2022-11-23T09:51:17.251Z,8.3
2022-11-23T09:52:13.950Z,8.3
2022-11-23T09:53:13.965Z,8.2
2022-11-23T09:54:14.214Z,8.2
2022-11-23T09:55:14.124Z,8.2
2022-11-23T09:56:14.211Z,8.2
2022-11-23T09:57:14.237Z,8.2
2022-11-23T09:58:14.546Z,8.3
2022-11-23T10:03:14.681Z,8.2
2022-11-23T10:04:14.613Z,8.2
2022-11-23T10:05:14.705Z,8.2
2022-11-23T10:06:14.673Z,8.2
2022-11-23T10:07:14.708Z,8.2
2022-11-23T10:08:14.735Z,8.1
2022-11-23T10:09:14.805Z,8.1
2022-11-23T10:10:14.804Z,8.2
2022-11-23T10:11:14.822Z,8.1
2022-11-23T10:12:14.902Z,8.1
2022-11-23T10:13:14.887Z,8.1
2022-11-23T10:14:14.923Z,8.2
2022-11-23T10:15:14.972Z,8.1
2022-11-23T10:16:14.944Z,8.1
2022-11-23T10:17:14.987Z,8.1
2022-11-23T10:18:15.100Z,8.1
2022-11-23T10:19:15.092Z,8.1
2022-11-23T10:20:15.157Z,8.1
2022-11-23T10:21:15.222Z,8.1
2022-11-23T10:22:15.195Z,8.1
2022-11-23T10:23:15.236Z,8.1
2022-11-23T10:24:15.250Z,8.1
2022-11-23T10:25:24.206Z,8.1
2022-11-23T10:26:15.331Z,8.1
2022-11-23T10:27:15.363Z,8.1
2022-11-23T10:28:15.426Z,8
2022-11-23T10:29:15.463Z,8
2022-11-23T10:30:15.479Z,8
2022-11-23T10:31:15.523Z,8
2022-11-23T10:32:15.581Z,8
2022-11-23T10:33:31.731Z,8
2022-11-23T10:34:46.770Z,8
2022-11-23T10:36:01.784Z,8
2022-11-23T10:37:16.738Z,8
2022-11-23T10:38:31.725Z,8
2022-11-23T10:39:46.763Z,8.1
2022-11-23T10:41:01.727Z,8.1
2022-11-23T10:42:16.732Z,8.1
2022-11-23T10:43:31.734Z,8.1
2022-11-23T10:44:46.751Z,8.1
2022-11-23T10:46:01.735Z,8.1
2022-11-23T10:47:16.744Z,8.1
2022-11-23T10:48:31.748Z,8.1
2022-11-23T10:49:40.741Z,8.1
2022-11-23T10:50:40.787Z,8.1
2022-11-23T10:51:40.840Z,8.2
2022-11-23T10:52:40.950Z,8.3
2022-11-23T10:53:40.927Z,8.4
2022-11-23T10:54:40.988Z,8.6
2022-11-23T10:55:41.016Z,8.6
2022-11-23T10:56:41.048Z,8.6
2022-11-23T10:57:41.097Z,8.5
2022-11-23T10:58:41.175Z,8.4
2022-11-23T10:59:41.261Z,8.4
2022-11-23T11:00:41.334Z,8.5
2022-11-23T11:01:41.427Z,8.9
2022-11-23T11:02:41.440Z,9.5
2022-11-23T11:03:41.528Z,9.8
2022-11-23T11:04:41.577Z,9.5
2022-11-23T11:06:41.707Z,9.8
2022-11-23T11:07:41.858Z,9.9
2022-11-23T11:08:41.879Z,9.6
2022-11-23T11:09:49.057Z,9.5
2022-11-23T11:10:41.986Z,9.6
2022-11-23T11:11:42.062Z,9.6
2022-11-23T11:12:42.230Z,9.4
2022-11-23T11:13:42.229Z,9.7
2022-11-23T11:14:43.405Z,9.7
2022-11-23T11:15:47.492Z,9.6
2022-11-23T11:16:46.492Z,9.5
2022-11-23T11:17:42.397Z,9.5
2022-11-23T11:18:42.492Z,9.5
2022-11-23T11:19:42.450Z,9.3
2022-11-23T11:20:42.973Z,9.4
2022-11-23T11:21:43.006Z,9.8
2022-11-23T11:22:47.522Z,10.1
2022-11-23T11:23:43.172Z,10.4
2022-11-23T11:24:43.280Z,10.6
2022-11-23T11:25:43.260Z,10.5
2022-11-23T11:26:43.284Z,10.4
2022-11-23T11:27:43.323Z,10.7
2022-11-23T11:28:43.381Z,10.5
2022-11-23T11:29:43.390Z,10.2
2022-11-23T11:30:43.495Z,10.4
2022-11-23T11:31:43.539Z,10.7
2022-11-23T11:32:43.871Z,10.9
2022-11-23T11:33:43.611Z,11.1
2022-11-23T11:34:43.632Z,10.8
2022-11-23T11:35:43.662Z,10.5
2022-11-23T11:36:43.697Z,10.7
2022-11-23T11:37:43.727Z,10.7
2022-11-23T11:38:48.512Z,10.5
2022-11-23T11:39:43.808Z,10.3
2022-11-23T11:40:44.032Z,10.3
2022-11-23T11:41:51.263Z,10.7
2022-11-23T11:42:43.956Z,11
2022-11-23T11:43:44.182Z,11.3
2022-11-23T11:44:44.057Z,11.2
2022-11-23T11:45:54.378Z,11.2
2022-11-23T11:46:44.146Z,11.1
2022-11-23T11:47:44.175Z,11
2022-11-23T11:48:44.569Z,11
2022-11-23T11:49:44.255Z,11
2022-11-23T11:50:44.309Z,11
2022-11-23T11:51:44.353Z,11
2022-11-23T11:52:44.702Z,10.9
2022-11-23T11:53:45.571Z,10.9
2022-11-23T11:54:44.486Z,10.8
2022-11-23T11:55:44.568Z,10.5
2022-11-23T11:56:44.544Z,10
2022-11-23T11:57:44.910Z,10.1
2022-11-23T11:58:44.602Z,10.4
2022-11-23T11:59:44.661Z,10.3
2022-11-23T12:00:45.300Z,10
2022-11-23T12:01:44.752Z,9.8
2022-11-23T12:02:44.857Z,9.8
2022-11-23T12:03:44.855Z,9.9
2022-11-23T12:04:44.869Z,9.7
2022-11-23T12:05:44.906Z,9.7
2022-11-23T12:06:44.928Z,9.7
2022-11-23T12:07:45.029Z,9.7
2022-11-23T12:08:45.019Z,9.9
2022-11-23T12:09:45.104Z,9.7
2022-11-23T12:10:48.295Z,9.7
2022-11-23T12:11:45.256Z,9.5
2022-11-23T12:12:45.334Z,9.5
2022-11-23T12:13:45.389Z,9.5
2022-11-23T12:14:45.459Z,9.3
2022-11-23T12:15:50.045Z,9.3
2022-11-23T12:16:45.588Z,9.3
2022-11-23T12:17:45.662Z,9.2
2022-11-23T12:18:45.759Z,9.2
2022-11-23T12:19:45.819Z,9.2
2022-11-23T12:20:45.860Z,9.1
2022-11-23T12:21:48.010Z,9.2
2022-11-23T12:22:46.061Z,9.1
2022-11-23T12:23:46.211Z,9.2
2022-11-23T12:24:46.339Z,9.1
2022-11-23T12:25:46.341Z,9.2
2022-11-23T12:26:46.484Z,9.3
2022-11-23T12:27:48.733Z,9.2
2022-11-23T12:28:46.517Z,9.2
2022-11-23T12:29:46.606Z,9.2
2022-11-23T12:30:46.589Z,9.3
2022-11-23T12:31:46.619Z,9.4
2022-11-23T12:32:51.313Z,9.4
2022-11-23T12:33:46.946Z,9.4
2022-11-23T12:34:46.641Z,9.5
2022-11-23T12:35:46.663Z,9.4
2022-11-23T12:36:46.764Z,9.4
2022-11-23T12:37:46.802Z,9.3
2022-11-23T12:38:46.774Z,9.3
2022-11-23T12:39:46.805Z,9.3
2022-11-23T12:40:46.822Z,9.3
2022-11-23T12:41:46.849Z,9.3
2022-11-23T12:42:46.857Z,9.3
2022-11-23T12:43:46.905Z,9.4
2022-11-23T12:44:46.903Z,9.4
2022-11-23T12:45:46.912Z,9.5
2022-11-23T12:46:46.980Z,9.8
2022-11-23T12:47:46.975Z,10.2
2022-11-23T12:48:47.062Z,10.4
2022-11-23T12:49:47.113Z,10.7
2022-11-23T12:54:47.320Z,10.5
2022-11-23T12:55:47.323Z,10.2
2022-11-23T12:56:47.361Z,9.8
2022-11-23T12:57:47.386Z,9.7
2022-11-23T12:58:47.422Z,9.5
2022-11-23T12:59:47.462Z,9.4
2022-11-23T13:00:47.522Z,9.4
2022-11-23T13:01:48.112Z,9.4
2022-11-23T13:02:47.598Z,9.4
2022-11-23T13:03:49.768Z,9.4
2022-11-23T13:04:47.700Z,9.5
2022-11-23T13:05:47.652Z,9.5
2022-11-23T13:07:59.110Z,9.4
2022-11-23T13:07:59.145Z,9.3
2022-11-23T13:08:47.780Z,9.4
2022-11-23T13:09:49.009Z,9.4
2022-11-23T13:10:48.138Z,9.4
2022-11-23T13:11:49.531Z,9.4
2022-11-23T13:12:47.880Z,9.5
2022-11-23T13:13:52.295Z,9.4
2022-11-23T13:14:48.007Z,9.4
2022-11-23T13:15:48.985Z,9.5
2022-11-23T13:16:48.523Z,9.4
2022-11-23T13:17:50.494Z,9.4
2022-11-23T13:18:48.114Z,9.4
2022-11-23T13:19:50.774Z,9.4
2022-11-23T13:20:48.170Z,9.3
2022-11-23T13:21:48.219Z,9.2
2022-11-23T13:22:50.352Z,9.4
2022-11-23T13:23:48.334Z,9.4
2022-11-23T13:24:48.458Z,9.4
2022-11-23T13:25:50.225Z,9.3
2022-11-23T13:26:48.579Z,9.4
2022-11-23T13:27:52.440Z,9.5
2022-11-23T13:28:50.630Z,9.5
2022-11-23T13:29:49.857Z,9.7
2022-11-23T13:31:17.926Z,9.8
2022-11-23T13:31:49.406Z,9.9
2022-11-23T13:32:48.848Z,9.7
2022-11-23T13:33:48.894Z,9.7
2022-11-23T13:34:49.168Z,9.8
2022-11-23T13:35:49.032Z,9.6
2022-11-23T13:37:11.445Z,9.4
2022-11-23T13:37:50.640Z,9.4
2022-11-23T13:38:49.030Z,9.3
2022-11-23T13:39:49.038Z,9.2
2022-11-23T13:40:50.640Z,9.2
2022-11-23T13:41:49.138Z,9.1
2022-11-23T13:42:49.145Z,9
2022-11-23T13:43:49.159Z,9
2022-11-23T13:44:49.196Z,9
2022-11-23T13:45:49.355Z,8.9
2022-11-23T13:46:50.972Z,8.9
2022-11-23T13:47:49.292Z,8.9
2022-11-23T13:48:56.555Z,8.8
2022-11-23T13:49:49.426Z,8.7
2022-11-23T13:50:49.383Z,8.8
2022-11-23T13:51:49.471Z,8.8
2022-11-23T14:05:02.315Z,8.7
2022-11-23T14:06:03.678Z,8.8
2022-11-23T14:07:02.371Z,8.8
2022-11-23T14:08:02.388Z,8.8
2022-11-23T14:09:02.418Z,8.8
2022-11-23T14:10:06.897Z,8.7
2022-11-23T14:11:02.516Z,8.8
2022-11-23T14:12:02.588Z,8.8
2022-11-23T14:13:02.620Z,8.8
2022-11-23T14:15:02.711Z,8.8
2022-11-23T14:16:02.790Z,8.8
2022-11-23T14:17:07.713Z,8.8
2022-11-23T14:18:02.910Z,8.8
2022-11-23T14:19:02.964Z,8.8
2022-11-23T14:20:03.040Z,8.9
2022-11-23T14:21:03.088Z,8.8
2022-11-23T14:22:03.139Z,8.8
2022-11-23T14:23:03.159Z,8.8
2022-11-23T14:24:03.214Z,8.7
2022-11-23T14:25:03.293Z,8.6
2022-11-23T14:26:03.367Z,8.6
2022-11-23T14:27:24.021Z,8.6
2022-11-23T14:28:03.492Z,8.6
2022-11-23T14:29:03.509Z,8.6
2022-11-23T14:30:03.599Z,8.6
2022-11-23T14:31:03.618Z,8.5
2022-11-23T14:32:03.795Z,8.5
2022-11-23T14:33:04.396Z,8.6
2022-11-23T14:34:04.180Z,8.5
2022-11-23T14:35:03.800Z,8.5
2022-11-23T14:36:03.848Z,8.5
2022-11-23T14:37:03.901Z,8.5
2022-11-23T14:38:03.957Z,8.5
2022-11-23T14:39:03.974Z,8.5
2022-11-23T14:40:04.172Z,8.5
2022-11-23T14:41:04.113Z,8.4
2022-11-23T14:42:04.153Z,8.4
2022-11-23T14:43:04.283Z,8.4
2022-11-23T14:45:31.652Z,8.4
2022-11-23T14:46:15.674Z,8.4
2022-11-23T14:47:04.579Z,8.4
2022-11-23T14:48:04.552Z,8.4
2022-11-23T14:49:04.656Z,8.4
2022-11-23T14:50:04.728Z,8.4
2022-11-23T14:51:04.722Z,8.4
2022-11-23T14:52:04.791Z,8.4
2022-11-23T14:53:04.854Z,8.3